createdAt,value
2022-08-18T00:02:05.261Z,78.55
2022-08-18T00:04:35.999Z,78.67
2022-08-18T00:07:07.982Z,78.70
2022-08-18T00:09:36.250Z,78.67
2022-08-18T00:12:14.628Z,78.67
2022-08-18T00:14:41.715Z,78.71
2022-08-18T00:17:08.810Z,78.77
2022-08-18T00:19:47.747Z,78.79
2022-08-18T00:22:17.715Z,78.83
2022-08-18T00:24:48.162Z,78.96
2022-08-18T00:27:19.645Z,78.85
2022-08-18T00:29:49.569Z,79.11
2022-08-18T00:32:19.809Z,79.13
2022-08-18T00:34:46.769Z,79.32
2022-08-18T00:37:13.680Z,79.31
2022-08-18T00:39:46.128Z,79.44
2022-08-18T00:42:29.821Z,79.61
2022-08-18T00:45:01.515Z,79.82
2022-08-18T00:47:41.122Z,79.93
2022-08-18T00:50:15.111Z,80.09
2022-08-18T00:52:46.729Z,80.21
2022-08-18T00:55:14.320Z,80.26
2022-08-18T00:57:43.146Z,80.24
2022-08-18T01:00:14.782Z,80.27
2022-08-18T01:02:48.454Z,80.34
2022-08-18T01:05:23.158Z,80.34
2022-08-18T01:07:50.652Z,80.39
2022-08-18T01:10:22.561Z,80.52
2022-08-18T01:12:51.067Z,80.51
2022-08-18T01:15:29.536Z,80.52
2022-08-18T01:18:21.589Z,80.68
2022-08-18T01:21:22.021Z,80.69
2022-08-18T01:23:49.700Z,80.62
2022-08-18T01:26:18.468Z,80.73
2022-08-18T01:28:46.756Z,80.76
2022-08-18T01:31:33.257Z,80.76
2022-08-18T01:34:01.265Z,80.83
2022-08-18T01:36:29.522Z,81.02
2022-08-18T01:38:57.092Z,80.84
2022-08-18T01:41:30.257Z,80.97
2022-08-18T01:44:00.516Z,80.93
2022-08-18T01:46:30.027Z,80.91
2022-08-18T01:48:59.588Z,80.82
2022-08-18T01:51:38.761Z,80.79
2022-08-18T01:54:09.108Z,80.85
2022-08-18T01:56:36.891Z,80.90
2022-08-18T01:59:04.030Z,80.85
2022-08-18T02:01:36.311Z,80.77
2022-08-18T02:04:31.078Z,80.67
2022-08-18T02:06:53.247Z,80.75
2022-08-18T02:09:23.925Z,80.74
2022-08-18T02:11:53.039Z,80.78
2022-08-18T02:14:25.165Z,80.73
2022-08-18T02:17:01.257Z,80.78
2022-08-18T02:19:33.689Z,80.77
2022-08-18T02:22:00.807Z,80.70
2022-08-18T02:24:27.857Z,80.80
2022-08-18T02:26:55.080Z,80.53
2022-08-18T02:29:22.152Z,80.55
2022-08-18T02:31:48.999Z,80.65
2022-08-18T02:34:17.197Z,80.66
2022-08-18T02:36:44.309Z,80.53
2022-08-18T02:39:11.411Z,80.63
2022-08-18T02:41:38.538Z,80.63
2022-08-18T02:44:07.752Z,80.60
2022-08-18T02:46:35.609Z,80.61
2022-08-18T02:49:02.909Z,80.53
2022-08-18T02:51:29.947Z,80.40
2022-08-18T02:53:59.484Z,80.42
2022-08-18T02:56:39.937Z,80.54
2022-08-18T02:59:10.636Z,80.54
2022-08-18T03:01:40.014Z,80.56
2022-08-18T03:04:08.986Z,80.75
2022-08-18T03:06:37.507Z,80.62
2022-08-18T03:09:05.893Z,80.54
2022-08-18T03:11:33.011Z,80.60
2022-08-18T03:14:01.281Z,80.68
2022-08-18T03:16:33.277Z,80.66
2022-08-18T03:19:01.693Z,80.58
2022-08-18T03:21:31.452Z,80.67
2022-08-18T03:24:00.523Z,80.59
2022-08-18T03:26:30.295Z,80.62
2022-08-18T03:28:58.929Z,81.01
2022-08-18T03:31:28.295Z,80.88
2022-08-18T03:33:57.162Z,80.85
2022-08-18T03:36:29.645Z,81.05
2022-08-18T03:38:57.187Z,81.13
2022-08-18T03:41:57.630Z,81.19
2022-08-18T03:44:15.322Z,81.22
2022-08-18T03:46:43.950Z,81.24
2022-08-18T03:49:11.431Z,81.31
2022-08-18T03:51:38.654Z,81.24
2022-08-18T03:54:06.219Z,81.27
2022-08-18T03:56:39.543Z,81.26
2022-08-18T03:59:19.214Z,81.32
2022-08-18T04:01:48.427Z,81.31
2022-08-18T04:04:19.258Z,81.40
2022-08-18T04:06:54.858Z,81.46
2022-08-18T04:09:23.869Z,81.45
2022-08-18T04:11:50.898Z,81.50
2022-08-18T04:14:21.672Z,81.52
2022-08-18T04:16:49.365Z,81.46
2022-08-18T04:19:26.466Z,81.47
2022-08-18T04:21:57.088Z,81.43
2022-08-18T04:24:26.501Z,81.48
2022-08-18T04:26:57.311Z,81.56
2022-08-18T04:29:24.587Z,81.40
2022-08-18T04:31:52.061Z,81.44
2022-08-18T04:34:20.860Z,81.24
2022-08-18T04:36:48.693Z,81.50
2022-08-18T04:39:16.188Z,81.23
2022-08-18T04:41:44.260Z,81.28
2022-08-18T04:44:12.706Z,81.35
2022-08-18T04:46:51.963Z,81.45
2022-08-18T04:49:20.673Z,81.46
2022-08-18T04:52:26.949Z,81.21
2022-08-18T04:54:55.172Z,81.41
2022-08-18T04:57:23.134Z,81.42
2022-08-18T04:59:52.478Z,81.32
2022-08-18T05:02:21.378Z,81.38
2022-08-18T05:04:48.921Z,81.30
2022-08-18T05:07:19.016Z,81.27
2022-08-18T05:09:46.358Z,81.37
2022-08-18T05:12:14.813Z,81.17
2022-08-18T05:14:44.685Z,81.27
2022-08-18T05:17:12.929Z,81.28
2022-08-18T05:19:42.376Z,81.32
2022-08-18T05:22:17.765Z,81.02
2022-08-18T05:24:45.888Z,81.28
2022-08-18T05:27:13.558Z,81.25
2022-08-18T05:29:45.816Z,80.91
2022-08-18T05:32:41.066Z,80.89
2022-08-18T05:35:24.117Z,80.83
2022-08-18T05:38:01.537Z,80.99
2022-08-18T05:40:29.600Z,81.00
2022-08-18T05:42:57.544Z,81.06
2022-08-18T05:45:24.896Z,80.83
2022-08-18T05:47:51.985Z,80.69
2022-08-18T05:50:20.254Z,81.00
2022-08-18T05:52:59.250Z,80.57
2022-08-18T05:55:48.425Z,80.57
2022-08-18T05:58:33.139Z,80.59
2022-08-18T06:01:09.136Z,80.27
2022-08-18T06:03:45.145Z,80.16
2022-08-18T06:06:23.995Z,80.02
2022-08-18T06:09:01.946Z,80.04
2022-08-18T06:11:29.086Z,80.02
2022-08-18T06:13:57.755Z,79.77
2022-08-18T06:16:58.224Z,79.88
2022-08-18T06:19:36.172Z,79.69
2022-08-18T06:22:12.515Z,79.72
2022-08-18T06:25:00.900Z,79.36
2022-08-18T06:27:33.977Z,79.12
2022-08-18T06:30:08.206Z,78.91
2022-08-18T06:33:14.882Z,78.80
2022-08-18T06:35:50.286Z,78.65
2022-08-18T06:38:45.733Z,78.27
2022-08-18T06:41:40.635Z,78.10
2022-08-18T06:44:11.074Z,77.81
2022-08-18T06:46:44.004Z,77.67
2022-08-18T06:49:31.486Z,77.49
2022-08-18T06:51:58.544Z,77.20
2022-08-18T06:54:28.684Z,76.89
2022-08-18T06:56:57.874Z,76.56
2022-08-18T06:59:28.724Z,76.07
2022-08-18T07:02:01.675Z,75.68
2022-08-18T07:04:44.025Z,75.55
2022-08-18T07:07:40.523Z,75.30
2022-08-18T07:10:13.774Z,74.76
2022-08-18T07:12:41.754Z,74.79
2022-08-18T07:15:12.794Z,74.32
2022-08-18T07:17:42.840Z,74.13
2022-08-18T07:20:25.707Z,73.79
2022-08-18T07:23:07.866Z,73.34
2022-08-18T07:25:41.676Z,73.32
2022-08-18T07:28:46.079Z,72.59
2022-08-18T07:31:17.341Z,72.23
2022-08-18T07:33:46.636Z,72.26
2022-08-18T07:36:14.625Z,71.55
2022-08-18T07:38:59.097Z,71.33
2022-08-18T07:41:37.175Z,70.86
2022-08-18T07:44:43.296Z,70.25
2022-08-18T07:47:38.121Z,69.69
2022-08-18T07:50:22.981Z,69.23
2022-08-18T07:52:54.214Z,69.15
2022-08-18T07:55:29.023Z,68.32
2022-08-18T07:58:52.978Z,67.70
2022-08-18T08:01:53.458Z,66.76
2022-08-18T08:04:46.515Z,65.96
2022-08-18T08:07:25.524Z,65.45
2022-08-18T08:10:15.186Z,64.74
2022-08-18T08:13:09.659Z,64.01
2022-08-18T08:16:04.597Z,63.57
2022-08-18T08:19:01.534Z,63.12
2022-08-18T08:21:33.309Z,62.77
2022-08-18T08:24:23.434Z,62.12
2022-08-18T08:27:20.755Z,61.46
2022-08-18T08:30:07.677Z,60.97
2022-08-18T08:32:34.679Z,60.44
2022-08-18T08:35:50.084Z,59.94
2022-08-18T08:38:39.578Z,59.75
2022-08-18T08:41:31.494Z,59.20
2022-08-18T08:44:12.363Z,58.98
2022-08-18T08:46:47.786Z,58.64
2022-08-18T08:49:41.235Z,58.38
2022-08-18T08:52:35.586Z,57.90
2022-08-18T08:55:25.703Z,57.33
2022-08-18T08:58:08.116Z,57.07
2022-08-18T09:00:36.247Z,56.72
2022-08-18T09:03:30.629Z,56.54
2022-08-18T09:06:03.858Z,56.33
2022-08-18T09:08:43.050Z,56.10
2022-08-18T09:11:19.529Z,55.63
2022-08-18T09:14:24.334Z,55.58
2022-08-18T09:17:15.795Z,55.12
2022-08-18T09:19:58.898Z,55.10
2022-08-18T09:22:45.459Z,55.14
2022-08-18T09:25:42.840Z,54.54
2022-08-18T09:28:23.507Z,54.65
2022-08-18T09:31:02.594Z,54.37
2022-08-18T09:33:51.155Z,53.78
2022-08-18T09:37:00.591Z,53.52
2022-08-18T09:40:12.595Z,53.19
2022-08-18T09:42:49.707Z,52.87
2022-08-18T09:45:34.001Z,52.64
2022-08-18T09:48:03.916Z,52.44
2022-08-18T09:50:38.924Z,52.28
2022-08-18T09:53:38.515Z,52.18
2022-08-18T09:56:06.878Z,52.31
2022-08-18T09:58:56.872Z,51.80
2022-08-18T10:01:31.938Z,51.78
2022-08-18T10:07:16.671Z,51.36
2022-08-18T10:13:14.065Z,50.74
2022-08-18T10:15:53.276Z,51.04
2022-08-18T10:18:59.288Z,50.42
2022-08-18T10:24:35.046Z,50.06
2022-08-18T10:27:10.989Z,50.02
2022-08-18T10:29:45.800Z,49.53
2022-08-18T10:32:14.253Z,49.73
2022-08-18T10:37:49.163Z,49.33
2022-08-18T10:40:21.160Z,48.98
2022-08-18T10:43:58.124Z,48.84
2022-08-18T10:46:25.113Z,48.97
2022-08-18T10:48:59.857Z,48.69
2022-08-18T10:52:02.201Z,48.54
2022-08-18T10:54:54.506Z,48.16
2022-08-18T10:57:21.590Z,47.96
2022-08-18T11:00:12.129Z,48.21
2022-08-18T11:03:02.553Z,48.16
2022-08-18T11:05:35.739Z,47.56
2022-08-18T11:08:16.067Z,47.94
2022-08-18T11:11:27.444Z,47.79
2022-08-18T11:13:53.227Z,47.56
2022-08-18T11:16:57.675Z,46.97
2022-08-18T11:19:25.626Z,46.83
2022-08-18T11:21:53.640Z,46.45
2022-08-18T11:24:24.914Z,46.76
2022-08-18T11:27:04.264Z,46.45
2022-08-18T11:29:42.766Z,46.23
2022-08-18T11:32:14.245Z,46.16
2022-08-18T11:34:52.846Z,45.92
2022-08-18T11:37:51.460Z,45.89
2022-08-18T11:43:21.522Z,45.43
2022-08-18T11:45:54.325Z,45.18
2022-08-18T11:48:37.852Z,44.85
2022-08-18T11:54:24.770Z,44.49
2022-08-18T11:56:52.043Z,45.00
2022-08-18T11:59:52.655Z,44.96
2022-08-18T12:02:18.362Z,46.39
2022-08-18T12:04:50.780Z,46.78
2022-08-18T12:07:35.667Z,48.03
2022-08-18T12:10:26.384Z,48.48
2022-08-18T12:13:00.449Z,49.05
2022-08-18T12:15:43.920Z,49.64
2022-08-18T12:18:26.277Z,50.15
2022-08-18T12:20:55.577Z,50.90
2022-08-18T12:23:22.604Z,51.22
2022-08-18T12:25:51.668Z,51.85
2022-08-18T12:28:22.502Z,51.89
2022-08-18T12:30:57.134Z,52.07
2022-08-18T12:33:25.397Z,52.62
2022-08-18T12:35:52.844Z,52.71
2022-08-18T12:38:19.875Z,52.98
2022-08-18T12:40:46.987Z,53.31
2022-08-18T12:43:14.055Z,53.16
2022-08-18T12:45:42.086Z,53.40
2022-08-18T12:48:09.526Z,53.63
2022-08-18T12:50:50.167Z,53.81
2022-08-18T12:53:30.254Z,54.15
2022-08-18T12:56:32.298Z,54.29
2022-08-18T12:59:05.042Z,54.52
2022-08-18T13:01:33.618Z,54.83
2022-08-18T13:04:12.876Z,54.86
2022-08-18T13:07:00.216Z,55.28
2022-08-18T13:09:48.338Z,55.10
2022-08-18T13:12:20.531Z,55.46
2022-08-18T13:14:48.584Z,55.24
2022-08-18T13:17:30.614Z,55.27
2022-08-18T13:20:06.285Z,55.23
2022-08-18T13:22:35.316Z,54.95
2022-08-18T13:25:03.823Z,55.18
2022-08-18T13:27:33.154Z,55.22
2022-08-18T13:30:29.515Z,55.12
2022-08-18T13:33:00.215Z,55.04
2022-08-18T13:35:29.896Z,54.83
2022-08-18T13:38:12.438Z,54.71
2022-08-18T13:40:46.958Z,54.63
2022-08-18T13:43:16.098Z,54.40
2022-08-18T13:45:48.083Z,54.65
2022-08-18T13:48:21.715Z,54.60
2022-08-18T13:50:53.054Z,54.61
2022-08-18T13:53:21.487Z,54.82
2022-08-18T13:55:49.083Z,55.09
2022-08-18T13:58:17.558Z,54.99
2022-08-18T14:00:47.511Z,54.82
2022-08-18T14:03:20.396Z,55.13
2022-08-18T14:06:01.625Z,55.28
2022-08-18T14:08:30.407Z,55.47
2022-08-18T14:11:09.546Z,55.52
2022-08-18T14:13:43.982Z,55.64
2022-08-18T14:16:18.611Z,55.64
2022-08-18T14:19:09.916Z,55.71
2022-08-18T14:22:04.246Z,55.66
2022-08-18T14:24:50.997Z,56.08
2022-08-18T14:27:20.055Z,55.97
2022-08-18T14:29:48.969Z,55.93
2022-08-18T14:32:21.929Z,56.06
2022-08-18T14:35:31.711Z,55.82
2022-08-18T14:37:49.789Z,55.66
2022-08-18T14:40:18.101Z,55.63
2022-08-18T14:42:54.807Z,55.55
2022-08-18T14:45:31.888Z,55.38
2022-08-18T14:48:07.537Z,55.58
2022-08-18T14:50:39.093Z,55.52
2022-08-18T14:53:06.712Z,55.61
2022-08-18T14:55:34.663Z,55.67
2022-08-18T14:58:03.658Z,55.51
2022-08-18T15:00:34.753Z,55.58
2022-08-18T15:03:17.172Z,55.45
2022-08-18T15:05:44.576Z,55.50
2022-08-18T15:08:11.730Z,55.26
2022-08-18T15:10:38.942Z,55.60
2022-08-18T15:13:05.995Z,55.80
2022-08-18T15:15:42.065Z,55.61
2022-08-18T15:18:22.659Z,55.65
2022-08-18T15:21:10.458Z,55.80
2022-08-18T15:24:20.186Z,55.81
2022-08-18T15:26:51.826Z,55.69
2022-08-18T15:29:28.998Z,55.90
2022-08-18T15:32:02.098Z,55.79
2022-08-18T15:34:46.256Z,56.13
2022-08-18T15:37:19.803Z,55.73
2022-08-18T15:39:58.278Z,56.04
2022-08-18T15:42:26.311Z,55.92
2022-08-18T15:44:54.498Z,55.71
2022-08-18T15:47:25.126Z,55.87
2022-08-18T15:49:54.735Z,55.63
2022-08-18T15:52:24.597Z,55.82
2022-08-18T15:54:57.019Z,56.14
2022-08-18T15:57:39.479Z,56.30
2022-08-18T16:00:12.130Z,56.25
2022-08-18T16:02:40.452Z,56.54
2022-08-18T16:05:14.025Z,56.56
2022-08-18T16:07:45.116Z,56.58
2022-08-18T16:10:13.859Z,56.66
2022-08-18T16:12:46.054Z,57.26
2022-08-18T16:15:22.976Z,57.53
2022-08-18T16:17:51.652Z,57.42
2022-08-18T16:20:19.642Z,57.69
2022-08-18T16:22:47.864Z,58.18
2022-08-18T16:25:16.574Z,58.05
2022-08-18T16:27:44.151Z,58.30
2022-08-18T16:30:14.639Z,58.76
2022-08-18T16:32:42.484Z,58.61
2022-08-18T16:35:10.094Z,59.06
2022-08-18T16:37:37.379Z,58.98
2022-08-18T16:40:05.353Z,59.30
2022-08-18T16:42:33.079Z,59.48
2022-08-18T16:45:00.896Z,59.97
2022-08-18T16:47:28.184Z,60.10
2022-08-18T16:49:58.590Z,60.39
2022-08-18T16:52:27.157Z,60.59
2022-08-18T16:54:58.053Z,60.81
2022-08-18T16:57:53.412Z,61.06
2022-08-18T17:00:41.250Z,61.03
2022-08-18T17:03:27.908Z,61.53
2022-08-18T17:06:04.810Z,61.63
2022-08-18T17:08:34.129Z,61.79
2022-08-18T17:11:07.164Z,62.00
2022-08-18T17:13:34.380Z,62.01
2022-08-18T17:16:01.417Z,62.06
2022-08-18T17:18:29.626Z,62.29
2022-08-18T17:20:57.833Z,62.43
2022-08-18T17:23:26.803Z,62.35
2022-08-18T17:25:53.837Z,62.26
2022-08-18T17:28:26.187Z,62.53
2022-08-18T17:30:53.467Z,62.80
2022-08-18T17:33:25.194Z,62.95
2022-08-18T17:35:54.324Z,63.01
2022-08-18T17:38:34.012Z,63.09
2022-08-18T17:41:02.762Z,63.21
2022-08-18T17:43:32.977Z,63.44
2022-08-18T17:46:18.417Z,63.58
2022-08-18T17:48:53.442Z,63.48
2022-08-18T17:51:44.513Z,63.84
2022-08-18T17:54:30.103Z,63.92
2022-08-18T17:57:08.971Z,63.98
2022-08-18T17:59:45.464Z,64.13
2022-08-18T18:02:29.785Z,64.18
2022-08-18T18:04:59.778Z,64.22
2022-08-18T18:07:28.777Z,64.43
2022-08-18T18:10:08.329Z,64.64
2022-08-18T18:12:36.880Z,64.72
2022-08-18T18:15:11.815Z,64.81
2022-08-18T18:17:43.178Z,65.12
2022-08-18T18:20:40.862Z,65.26
2022-08-18T18:23:21.151Z,65.69
2022-08-18T18:25:48.490Z,65.65
2022-08-18T18:28:33.333Z,66.11
2022-08-18T18:31:27.834Z,66.23
2022-08-18T18:34:07.059Z,66.46
2022-08-18T18:36:52.058Z,66.55
2022-08-18T18:39:34.100Z,66.79
2022-08-18T18:42:14.959Z,66.62
2022-08-18T18:44:51.958Z,66.73
2022-08-18T18:47:40.002Z,66.88
2022-08-18T18:50:30.027Z,67.12
2022-08-18T18:53:21.977Z,66.98
2022-08-18T18:56:12.613Z,67.29
2022-08-18T18:58:43.032Z,67.24
2022-08-18T19:01:49.132Z,67.25
2022-08-18T19:04:21.541Z,67.38
2022-08-18T19:06:56.528Z,67.83
2022-08-18T19:09:34.928Z,67.80
2022-08-18T19:12:19.424Z,67.95
2022-08-18T19:15:00.214Z,67.97
2022-08-18T19:17:46.842Z,68.18
2022-08-18T19:20:17.177Z,68.40
2022-08-18T19:22:58.115Z,68.37
2022-08-18T19:25:36.548Z,68.71
2022-08-18T19:28:26.175Z,68.73
2022-08-18T19:30:55.546Z,68.84
2022-08-18T19:33:41.847Z,69.15
2022-08-18T19:36:26.556Z,68.98
2022-08-18T19:39:15.468Z,69.26
2022-08-18T19:42:47.260Z,69.06
2022-08-18T19:45:41.712Z,69.18
2022-08-18T19:48:18.951Z,69.46
2022-08-18T19:50:52.583Z,69.45
2022-08-18T19:53:40.412Z,69.89
2022-08-18T19:56:21.396Z,69.79
2022-08-18T19:59:18.568Z,69.60
2022-08-18T20:01:52.523Z,69.99
2022-08-18T20:04:32.881Z,69.93
2022-08-18T20:07:25.423Z,70.08
2022-08-18T20:09:55.979Z,70.13
2022-08-18T20:12:28.333Z,70.47
2022-08-18T20:15:15.911Z,70.45
2022-08-18T20:18:03.535Z,70.60
2022-08-18T20:20:38.499Z,70.46
2022-08-18T20:23:59.394Z,70.61
2022-08-18T20:26:38.779Z,70.72
2022-08-18T20:29:11.541Z,70.71
2022-08-18T20:32:01.890Z,70.96
2022-08-18T20:34:34.160Z,70.90
2022-08-18T20:37:08.281Z,71.19
2022-08-18T20:39:56.379Z,71.10
2022-08-18T20:42:24.476Z,71.17
2022-08-18T20:44:59.152Z,71.49
2022-08-18T20:47:50.025Z,71.68
2022-08-18T20:50:35.015Z,71.56
2022-08-18T20:53:26.123Z,71.61
2022-08-18T20:56:12.880Z,71.73
2022-08-18T20:58:59.241Z,71.86
2022-08-18T21:01:29.654Z,71.89
2022-08-18T21:03:59.460Z,72.09
2022-08-18T21:06:42.162Z,72.21
2022-08-18T21:09:09.534Z,72.46
2022-08-18T21:11:41.479Z,72.21
2022-08-18T21:14:09.171Z,72.65
2022-08-18T21:16:42.596Z,72.52
2022-08-18T21:19:23.634Z,72.65
2022-08-18T21:21:54.263Z,72.69
2022-08-18T21:24:44.250Z,72.73
2022-08-18T21:27:37.730Z,73.10
2022-08-18T21:30:28.511Z,73.11
2022-08-18T21:32:55.842Z,73.33
2022-08-18T21:35:39.450Z,73.13
2022-08-18T21:38:12.537Z,73.42
2022-08-18T21:40:48.619Z,73.35
2022-08-18T21:43:51.655Z,73.79
2022-08-18T21:46:28.304Z,73.90
2022-08-18T21:48:57.829Z,74.11
2022-08-18T21:51:27.442Z,74.15
2022-08-18T21:53:55.251Z,74.32
2022-08-18T21:56:31.131Z,74.67
2022-08-18T21:59:30.520Z,74.75
2022-08-18T22:01:57.748Z,74.88
2022-08-18T22:04:26.536Z,74.95
2022-08-18T22:06:58.883Z,74.77
2022-08-18T22:09:54.230Z,74.92
2022-08-18T22:12:42.619Z,75.04
2022-08-18T22:15:20.927Z,75.03
2022-08-18T22:17:57.519Z,75.28
2022-08-18T22:20:47.836Z,75.39
2022-08-18T22:23:33.121Z,75.31
2022-08-18T22:26:23.504Z,75.26
2022-08-18T22:28:58.929Z,75.45
2022-08-18T22:31:31.628Z,75.62
2022-08-18T22:34:04.063Z,75.56
2022-08-18T22:36:35.270Z,75.74
2022-08-18T22:39:02.649Z,75.72
2022-08-18T22:41:30.138Z,75.77
2022-08-18T22:43:58.282Z,75.92
2022-08-18T22:46:25.388Z,76.00
2022-08-18T22:48:53.195Z,76.17
2022-08-18T22:51:24.313Z,76.21
2022-08-18T22:53:51.896Z,76.26
2022-08-18T22:56:33.820Z,76.18
2022-08-18T22:59:13.564Z,76.38
2022-08-18T23:01:46.432Z,76.43
2022-08-18T23:04:15.970Z,76.39
2022-08-18T23:06:51.119Z,76.40
2022-08-18T23:09:30.302Z,76.40
2022-08-18T23:12:00.022Z,76.56
2022-08-18T23:14:27.327Z,76.49
2022-08-18T23:16:54.437Z,76.57
2022-08-18T23:19:21.548Z,76.47
2022-08-18T23:21:48.819Z,76.54
2022-08-18T23:24:17.276Z,76.54
2022-08-18T23:26:45.218Z,76.62
2022-08-18T23:29:14.442Z,76.68
2022-08-18T23:31:43.511Z,76.68
2022-08-18T23:34:13.116Z,76.84
2022-08-18T23:36:45.331Z,76.92
2022-08-18T23:39:13.497Z,76.89
2022-08-18T23:41:40.629Z,77.00
2022-08-18T23:44:07.670Z,77.05
2022-08-18T23:46:35.767Z,77.05
2022-08-18T23:49:04.658Z,77.20
2022-08-18T23:51:43.978Z,76.95
2022-08-18T23:54:20.804Z,77.08
2022-08-18T23:56:48.422Z,77.02
2022-08-18T23:59:17.056Z,76.99
